createdAt,value
2018-11-02T00:01:35.639Z,98711.61
2018-11-02T00:04:04.432Z,98721.31
2018-11-02T00:06:34.378Z,98720.71
2018-11-02T00:09:02.983Z,98726.44
2018-11-02T00:11:31.774Z,98731.58
2018-11-02T00:14:00.317Z,98727.22
2018-11-02T00:16:28.893Z,98729.03
2018-11-02T00:18:57.550Z,98734.44
2018-11-02T00:21:26.035Z,98729.69
2018-11-02T00:23:54.743Z,98721.35
2018-11-02T00:26:23.414Z,98723.37
2018-11-02T00:28:52.227Z,98716.89
2018-11-02T00:31:21.735Z,98716.73
2018-11-02T00:33:50.255Z,98717.02
2018-11-02T00:36:18.844Z,98708.57
2018-11-02T00:38:47.598Z,98710.74
2018-11-02T00:41:16.175Z,98712.20
2018-11-02T00:43:44.704Z,98707.73
2018-11-02T00:46:13.531Z,98711.92
2018-11-02T00:48:42.039Z,98713.25
2018-11-02T00:51:10.842Z,98710.12
2018-11-02T00:53:39.654Z,98710.81
2018-11-02T00:56:08.377Z,98710.66
2018-11-02T00:58:36.874Z,98706.67
2018-11-02T01:01:05.677Z,98706.67
2018-11-02T01:03:34.577Z,98707.16
2018-11-02T01:06:03.871Z,98713.11
2018-11-02T01:08:32.632Z,98712.27
2018-11-02T01:11:01.343Z,98715.77
2018-11-02T01:13:29.951Z,98718.50
2018-11-02T01:15:58.455Z,98719.35
2018-11-02T01:18:26.926Z,98708.36
2018-11-02T01:20:55.551Z,98717.50
2018-11-02T01:23:24.082Z,98726.59
2018-11-02T01:26:55.751Z,98721.92
2018-11-02T01:29:24.482Z,98733.63
2018-11-02T01:31:53.409Z,98721.00
2018-11-02T01:34:22.128Z,98716.56
2018-11-02T01:36:50.661Z,98720.34
2018-11-02T01:39:19.491Z,98723.47
2018-11-02T01:41:48.211Z,98721.77
2018-11-02T01:44:16.735Z,98730.78
2018-11-02T01:46:45.289Z,98732.86
2018-11-02T01:49:14.258Z,98731.33
2018-11-02T01:51:42.823Z,98733.84
2018-11-02T01:54:11.543Z,98735.36
2018-11-02T01:56:40.427Z,98740.16
2018-11-02T01:59:08.979Z,98735.69
2018-11-02T02:01:37.524Z,98734.27
2018-11-02T02:04:06.677Z,98743.14
2018-11-02T02:06:35.494Z,98741.74
2018-11-02T02:09:04.768Z,98737.10
2018-11-02T02:11:33.539Z,98736.01
2018-11-02T02:14:02.111Z,98731.37
2018-11-02T02:16:30.659Z,98740.05
2018-11-02T02:18:59.327Z,98742.09
2018-11-02T02:21:27.834Z,98745.38
2018-11-02T02:23:56.495Z,98742.72
2018-11-02T02:26:25.172Z,98745.91
2018-11-02T02:28:54.159Z,98748.93
2018-11-02T02:31:22.679Z,98759.65
2018-11-02T02:33:51.276Z,98757.78
2018-11-02T02:36:20.358Z,98769.79
2018-11-02T02:38:49.337Z,98767.25
2018-11-02T02:41:17.982Z,98762.31
2018-11-02T02:43:47.523Z,98777.19
2018-11-02T02:46:16.192Z,98783.78
2018-11-02T02:48:44.743Z,98789.27
2018-11-02T02:51:13.319Z,98778.55
2018-11-02T02:53:41.836Z,98781.46
2018-11-02T02:56:10.338Z,98780.42
2018-11-02T02:58:39.426Z,98786.33
2018-11-02T03:01:08.219Z,98788.26
2018-11-02T03:03:36.785Z,98790.05
2018-11-02T03:06:05.391Z,98794.69
2018-11-02T03:08:34.259Z,98795.58
2018-11-02T03:11:03.383Z,98788.31
2018-11-02T03:13:31.826Z,98800.00
2018-11-02T03:16:05.458Z,98800.02
2018-11-02T03:18:33.991Z,98801.61
2018-11-02T03:21:02.566Z,98800.88
2018-11-02T03:23:31.128Z,98795.45
2018-11-02T03:25:59.606Z,98793.33
2018-11-02T03:28:28.448Z,98798.23
2018-11-02T03:30:56.984Z,98795.75
2018-11-02T03:33:25.510Z,98801.22
2018-11-02T03:35:54.284Z,98800.14
2018-11-02T03:38:22.775Z,98807.17
2018-11-02T03:40:51.304Z,98809.95
2018-11-02T03:43:19.872Z,98812.64
2018-11-02T03:45:48.664Z,98821.06
2018-11-02T03:48:17.145Z,98820.29
2018-11-02T03:50:46.298Z,98832.91
2018-11-02T03:53:15.111Z,98829.28
2018-11-02T03:55:44.139Z,98823.88
2018-11-02T03:58:13.715Z,98831.12
2018-11-02T04:00:42.752Z,98841.64
2018-11-02T04:03:11.624Z,98848.23
2018-11-02T04:05:40.337Z,98847.89
2018-11-02T04:08:08.860Z,98847.95
2018-11-02T04:10:37.414Z,98851.63
2018-11-02T04:13:06.004Z,98836.27
2018-11-02T04:15:35.006Z,98835.84
2018-11-02T04:18:03.825Z,98841.84
2018-11-02T04:20:32.332Z,98840.76
2018-11-02T04:23:00.848Z,98837.16
2018-11-02T04:25:29.495Z,98830.36
2018-11-02T04:27:58.087Z,98831.64
2018-11-02T04:30:26.734Z,98831.77
2018-11-02T04:32:55.303Z,98830.78
2018-11-02T04:35:24.870Z,98830.30
2018-11-02T04:37:55.350Z,98828.67
2018-11-02T04:40:23.796Z,98822.22
2018-11-02T04:42:52.377Z,98820.66
2018-11-02T04:45:24.982Z,98825.20
2018-11-02T04:47:53.558Z,98828.55
2018-11-02T04:50:22.115Z,98832.10
2018-11-02T04:52:50.612Z,98830.00
2018-11-02T04:55:19.130Z,98838.03
2018-11-02T04:57:47.580Z,98838.50
2018-11-02T05:00:16.195Z,98842.47
2018-11-02T05:02:44.703Z,98845.03
2018-11-02T05:05:13.200Z,98852.97
2018-11-02T05:07:41.662Z,98841.59
2018-11-02T05:10:10.533Z,98844.87
2018-11-02T05:12:39.411Z,98846.73
2018-11-02T05:15:08.009Z,98848.05
2018-11-02T05:17:36.515Z,98858.00
2018-11-02T05:20:06.147Z,98860.91
2018-11-02T05:22:34.590Z,98863.08
2018-11-02T05:25:03.107Z,98860.42
2018-11-02T05:27:31.585Z,98852.19
2018-11-02T05:30:00.098Z,98853.11
2018-11-02T05:32:28.811Z,98860.92
2018-11-02T05:34:57.346Z,98855.92
2018-11-02T05:37:25.948Z,98866.84
2018-11-02T05:39:54.431Z,98873.91
2018-11-02T05:42:22.967Z,98882.38
2018-11-02T05:44:51.430Z,98881.13
2018-11-02T05:47:20.049Z,98883.92
2018-11-02T05:49:53.934Z,98879.04
2018-11-02T05:52:27.239Z,98876.47
2018-11-02T05:54:55.750Z,98881.00
2018-11-02T05:57:24.298Z,98896.64
2018-11-02T05:59:53.833Z,98901.16
2018-11-02T06:02:23.324Z,98910.53
2018-11-02T06:04:51.810Z,98909.63
2018-11-02T06:07:20.438Z,98917.41
2018-11-02T06:09:48.975Z,98920.20
2018-11-02T06:12:17.572Z,98927.36
2018-11-02T06:14:46.042Z,98935.48
2018-11-02T06:17:14.512Z,98939.92
2018-11-02T06:19:43.041Z,98939.84
2018-11-02T06:22:11.470Z,98926.22
2018-11-02T06:24:40.027Z,98935.42
2018-11-02T06:27:08.453Z,98939.14
2018-11-02T06:29:36.926Z,98942.50
2018-11-02T06:32:06.087Z,98939.63
2018-11-02T06:34:34.539Z,98944.98
2018-11-02T06:37:03.077Z,98947.55
2018-11-02T06:39:32.614Z,98950.36
2018-11-02T06:42:01.155Z,98951.98
2018-11-02T06:44:29.639Z,98952.14
2018-11-02T06:46:58.130Z,98961.05
2018-11-02T06:49:30.158Z,98955.75
2018-11-02T06:51:58.669Z,98961.05
2018-11-02T06:54:27.179Z,98957.28
2018-11-02T06:56:55.686Z,98958.23
2018-11-02T06:59:24.241Z,98968.73
2018-11-02T07:01:52.652Z,98974.64
2018-11-02T07:04:21.279Z,98979.17
2018-11-02T07:06:50.858Z,98980.41
2018-11-02T07:09:19.299Z,98983.98
2018-11-02T07:11:48.858Z,98987.38
2018-11-02T07:14:17.345Z,98985.58
2018-11-02T07:16:46.023Z,98994.18
2018-11-02T07:19:15.950Z,98989.05
2018-11-02T07:21:44.574Z,98993.56
2018-11-02T07:24:13.162Z,98990.20
2018-11-02T07:26:41.759Z,98989.05
2018-11-02T07:29:10.453Z,98987.89
2018-11-02T07:31:39.028Z,99001.32
2018-11-02T07:34:07.868Z,99002.81
2018-11-02T07:36:36.411Z,99002.27
2018-11-02T07:39:07.524Z,99004.17
2018-11-02T07:41:36.066Z,99008.45
2018-11-02T07:44:04.826Z,99020.11
2018-11-02T07:46:33.359Z,99023.87
2018-11-02T07:49:01.829Z,99026.83
2018-11-02T07:51:30.393Z,99030.53
2018-11-02T07:53:59.065Z,99031.84
2018-11-02T07:56:27.787Z,99027.42
2018-11-02T07:58:56.363Z,99012.94
2018-11-02T08:01:25.174Z,99021.91
2018-11-02T08:03:53.731Z,99022.79
2018-11-02T08:06:22.348Z,99019.61
2018-11-02T08:08:50.858Z,99016.64
2018-11-02T08:11:19.534Z,99017.62
2018-11-02T08:13:48.044Z,99009.64
2018-11-02T08:16:16.688Z,99015.20
2018-11-02T08:18:45.544Z,99016.91
2018-11-02T08:21:14.096Z,99030.59
2018-11-02T08:23:42.746Z,99039.15
2018-11-02T08:26:11.301Z,99044.96
2018-11-02T08:28:39.792Z,99039.25
2018-11-02T08:31:08.379Z,99035.52
2018-11-02T08:33:38.560Z,99028.80
2018-11-02T08:36:07.150Z,99028.12
2018-11-02T08:38:35.732Z,99026.42
2018-11-02T08:41:04.305Z,99029.73
2018-11-02T08:43:32.835Z,99038.17
2018-11-02T08:46:01.360Z,99037.97
2018-11-02T08:48:30.915Z,99041.39
2018-11-02T08:50:59.475Z,99038.11
2018-11-02T08:53:28.129Z,99041.46
2018-11-02T08:55:56.650Z,99051.23
2018-11-02T08:58:25.371Z,99049.67
2018-11-02T09:00:53.940Z,99054.34
2018-11-02T09:03:22.653Z,99056.45
2018-11-02T09:05:51.272Z,99063.09
2018-11-02T09:08:19.891Z,99050.42
2018-11-02T09:10:49.549Z,99054.78
2018-11-02T09:13:18.179Z,99055.77
2018-11-02T09:15:46.827Z,99061.08
2018-11-02T09:18:15.648Z,99069.99
2018-11-02T09:20:45.228Z,99074.36
2018-11-02T09:23:14.867Z,99068.24
2018-11-02T09:25:43.559Z,99064.06
2018-11-02T09:28:12.241Z,99055.08
2018-11-02T09:30:40.889Z,99055.89
2018-11-02T09:33:09.623Z,99054.31
2018-11-02T09:35:38.328Z,99067.09
2018-11-02T09:38:07.098Z,99063.77
2018-11-02T09:40:35.715Z,99066.95
2018-11-02T09:43:04.731Z,99063.91
2018-11-02T09:45:33.347Z,99076.64
2018-11-02T09:48:01.946Z,99078.25
2018-11-02T09:50:30.627Z,99070.14
2018-11-02T09:52:59.374Z,99078.68
2018-11-02T09:55:28.113Z,99083.53
2018-11-02T09:57:57.055Z,99085.41
2018-11-02T10:00:25.650Z,99087.31
2018-11-02T10:02:54.412Z,99076.43
2018-11-02T10:05:23.020Z,99076.57
2018-11-02T10:07:51.705Z,99074.58
2018-11-02T10:10:20.402Z,99077.11
2018-11-02T10:12:49.147Z,99074.98
2018-11-02T10:15:17.715Z,99087.34
2018-11-02T10:17:46.459Z,99084.45
2018-11-02T10:20:15.320Z,99089.84
2018-11-02T10:22:43.837Z,99092.63
2018-11-02T10:25:12.430Z,99092.13
2018-11-02T10:27:42.426Z,99080.00
2018-11-02T10:30:12.591Z,99084.23
2018-11-02T10:32:42.391Z,99077.79
2018-11-02T10:35:10.979Z,99075.06
2018-11-02T10:37:39.945Z,99076.98
2018-11-02T10:40:11.531Z,99072.53
2018-11-02T10:42:40.607Z,99078.24
2018-11-02T10:45:09.309Z,99078.42
2018-11-02T10:47:38.031Z,99082.91
2018-11-02T10:50:07.094Z,99081.59
2018-11-02T10:52:35.678Z,99082.93
2018-11-02T10:55:04.394Z,99085.64
2018-11-02T10:57:32.935Z,99083.92
2018-11-02T11:00:01.554Z,99079.20
2018-11-02T11:02:35.497Z,99076.27
2018-11-02T11:05:04.082Z,99079.66
2018-11-02T11:07:32.741Z,99074.30
2018-11-02T11:10:01.302Z,99068.69
2018-11-02T11:12:30.046Z,99067.11
2018-11-02T11:14:58.516Z,99068.81
2018-11-02T11:17:27.178Z,99062.11
2018-11-02T11:19:56.781Z,99069.90
2018-11-02T11:22:25.552Z,99069.29
2018-11-02T11:24:54.152Z,99075.64
2018-11-02T11:27:22.648Z,99078.21
2018-11-02T11:29:51.299Z,99082.59
2018-11-02T11:32:19.780Z,99079.77
2018-11-02T11:34:48.369Z,99080.72
2018-11-02T11:37:16.956Z,99080.97
2018-11-02T11:39:45.727Z,99079.52
2018-11-02T11:42:14.329Z,99082.16
2018-11-02T11:44:42.951Z,99083.49
2018-11-02T11:47:11.437Z,99093.94
2018-11-02T11:49:39.990Z,99091.11
2018-11-02T11:52:08.700Z,99086.25
2018-11-02T11:54:37.406Z,99084.59
2018-11-02T11:57:06.622Z,99095.73
2018-11-02T11:59:35.157Z,99100.50
2018-11-02T12:02:03.700Z,99103.33
2018-11-02T12:04:32.336Z,99100.95
2018-11-02T12:07:00.849Z,99105.14
2018-11-02T12:09:29.702Z,99093.56
2018-11-02T12:11:58.227Z,99097.64
2018-11-02T12:14:26.770Z,99091.39
2018-11-02T12:16:55.454Z,99085.45
2018-11-02T12:19:24.037Z,99088.41
2018-11-02T12:21:52.730Z,99094.57
2018-11-02T12:24:21.223Z,99095.98
2018-11-02T12:26:49.868Z,99099.67
2018-11-02T12:29:18.356Z,99105.50
2018-11-02T12:31:46.875Z,99095.66
2018-11-02T12:34:15.332Z,99095.47
2018-11-02T12:36:43.839Z,99099.00
2018-11-02T12:39:12.291Z,99112.45
2018-11-02T12:41:41.042Z,99115.57
2018-11-02T12:44:09.625Z,99109.84
2018-11-02T12:46:38.245Z,99110.94
2018-11-02T12:49:07.095Z,99113.62
2018-11-02T12:51:36.510Z,99106.66
2018-11-02T12:54:05.361Z,99104.13
2018-11-02T12:56:33.971Z,99099.45
2018-11-02T12:59:02.467Z,99100.09
2018-11-02T13:01:31.003Z,99094.86
2018-11-02T13:04:00.956Z,99095.23
2018-11-02T13:06:29.731Z,99093.32
2018-11-02T13:08:58.708Z,99089.80
2018-11-02T13:11:28.287Z,99095.74
2018-11-02T13:13:56.904Z,99095.88
2018-11-02T13:16:25.451Z,99088.20
2018-11-02T13:18:55.601Z,99080.42
2018-11-02T13:21:24.223Z,99079.68
2018-11-02T13:23:52.843Z,99085.78
2018-11-02T13:26:21.437Z,99092.91
2018-11-02T13:28:49.913Z,99091.08
2018-11-02T13:31:19.640Z,99094.85
2018-11-02T13:33:48.075Z,99087.80
2018-11-02T13:36:17.127Z,99094.36
2018-11-02T13:38:45.604Z,99089.59
2018-11-02T13:41:14.242Z,99097.73
2018-11-02T13:43:42.878Z,99096.88
2018-11-02T13:46:12.289Z,99107.33
2018-11-02T13:48:40.982Z,99100.88
2018-11-02T13:51:09.473Z,99105.98
2018-11-02T13:53:38.126Z,99099.89
2018-11-02T13:56:06.650Z,99098.80
2018-11-02T13:58:35.231Z,99104.27
2018-11-02T14:01:03.799Z,99107.20
2018-11-02T14:03:32.390Z,99113.30
2018-11-02T14:06:00.993Z,99116.72
2018-11-02T14:08:29.590Z,99120.13
2018-11-02T14:10:58.111Z,99113.64
2018-11-02T14:13:26.729Z,99121.34
2018-11-02T14:15:55.365Z,99125.40
2018-11-02T14:18:23.992Z,99128.09
2018-11-02T14:20:52.461Z,99131.12
2018-11-02T14:23:21.043Z,99134.88
2018-11-02T14:25:49.630Z,99134.39
2018-11-02T14:28:18.262Z,99145.09
2018-11-02T14:30:46.860Z,99142.55
2018-11-02T14:33:15.423Z,99142.76
2018-11-02T14:35:43.975Z,99148.34
2018-11-02T14:38:12.605Z,99157.81
2018-11-02T14:40:41.178Z,99151.34
2018-11-02T14:43:09.757Z,99162.02
2018-11-02T14:45:38.356Z,99160.69
2018-11-02T14:48:06.918Z,99161.52
2018-11-02T14:50:35.612Z,99163.95
2018-11-02T14:53:04.226Z,99170.64
2018-11-02T14:55:32.712Z,99175.25
2018-11-02T14:58:01.317Z,99182.53
2018-11-02T15:00:29.890Z,99176.91
2018-11-02T15:02:58.578Z,99186.57
2018-11-02T15:05:27.167Z,99177.41
2018-11-02T15:07:55.795Z,99182.50
2018-11-02T15:10:24.368Z,99176.73
2018-11-02T15:12:53.064Z,99176.70
2018-11-02T15:15:21.610Z,99183.98
2018-11-02T15:17:50.247Z,99186.03
2018-11-02T15:20:18.872Z,99188.19
2018-11-02T15:22:47.365Z,99188.73
2018-11-02T15:25:16.152Z,99186.48
2018-11-02T15:27:44.680Z,99185.59
2018-11-02T15:30:14.504Z,99188.23
2018-11-02T15:32:44.516Z,99195.56
2018-11-02T15:35:13.431Z,99195.20
2018-11-02T15:37:42.744Z,99203.70
2018-11-02T15:40:12.319Z,99215.07
2018-11-02T15:42:41.403Z,99216.27
2018-11-02T15:45:12.072Z,99211.87
2018-11-02T15:47:40.715Z,99206.65
2018-11-02T15:50:10.288Z,99206.38
2018-11-02T15:52:39.296Z,99206.38
2018-11-02T15:55:09.051Z,99201.98
2018-11-02T15:57:37.846Z,99211.82
2018-11-02T16:00:11.031Z,99214.18
2018-11-02T16:02:39.676Z,99211.51
2018-11-02T16:05:09.016Z,99209.81
2018-11-02T16:07:39.004Z,99215.34
2018-11-02T16:10:08.956Z,99223.97
2018-11-02T16:12:37.485Z,99242.45
2018-11-02T16:15:07.450Z,99242.77
2018-11-02T16:17:36.251Z,99235.82
2018-11-02T16:20:05.581Z,99240.98
2018-11-02T16:22:34.088Z,99245.52
2018-11-02T16:25:02.775Z,99250.45
2018-11-02T16:27:31.327Z,99258.41
2018-11-02T16:30:00.210Z,99254.70
2018-11-02T16:32:28.687Z,99251.86
2018-11-02T16:34:57.762Z,99261.50
2018-11-02T16:37:26.918Z,99264.30
2018-11-02T16:39:55.883Z,99269.73
2018-11-02T16:42:24.451Z,99277.25
2018-11-02T16:44:53.217Z,99272.39
2018-11-02T16:47:21.780Z,99281.44
2018-11-02T16:49:50.367Z,99275.55
2018-11-02T16:52:18.943Z,99277.46
2018-11-02T16:54:47.526Z,99281.31
2018-11-02T16:57:16.146Z,99281.49
2018-11-02T16:59:44.847Z,99287.44
2018-11-02T17:02:13.449Z,99295.62
2018-11-02T17:04:42.213Z,99305.36
2018-11-02T17:07:10.900Z,99301.17
2018-11-02T17:09:39.932Z,99306.81
2018-11-02T17:12:08.559Z,99303.58
2018-11-02T17:14:37.219Z,99304.34
2018-11-02T17:17:06.511Z,99309.80
2018-11-02T17:19:35.655Z,99313.04
2018-11-02T17:22:04.288Z,99332.50
2018-11-02T17:24:32.990Z,99328.88
2018-11-02T17:27:02.001Z,99333.93
2018-11-02T17:29:31.175Z,99338.89
2018-11-02T17:31:59.740Z,99347.66
2018-11-02T17:34:28.303Z,99338.28
2018-11-02T17:36:57.309Z,99338.00
2018-11-02T17:39:26.449Z,99345.07
2018-11-02T17:41:55.575Z,99351.05
2018-11-02T17:44:24.306Z,99354.21
2018-11-02T17:46:53.420Z,99357.16
2018-11-02T17:49:22.104Z,99372.97
2018-11-02T17:51:51.034Z,99370.42
2018-11-02T17:54:20.196Z,99368.69
2018-11-02T17:56:49.014Z,99374.42
2018-11-02T17:59:18.018Z,99375.56
2018-11-02T18:01:46.848Z,99376.13
2018-11-02T18:04:17.309Z,99377.87
2018-11-02T18:06:46.518Z,99379.20
2018-11-02T18:09:15.011Z,99372.53
2018-11-02T18:11:43.738Z,99383.97
2018-11-02T18:14:12.954Z,99380.14
2018-11-02T18:16:42.478Z,99385.11
2018-11-02T18:19:11.272Z,99388.34
2018-11-02T18:21:39.878Z,99388.92
2018-11-02T18:24:08.815Z,99388.06
2018-11-02T18:26:38.118Z,99393.52
2018-11-02T18:29:06.739Z,99394.09
2018-11-02T18:31:35.338Z,99393.32
2018-11-02T18:34:04.383Z,99393.31
2018-11-02T18:36:33.584Z,99390.81
2018-11-02T18:39:02.245Z,99389.31
2018-11-02T18:41:30.967Z,99389.20
2018-11-02T18:44:00.129Z,99390.53
2018-11-02T18:46:29.711Z,99387.77
2018-11-02T18:48:58.294Z,99393.11
2018-11-02T18:51:27.299Z,99397.60
2018-11-02T18:53:56.469Z,99393.68
2018-11-02T18:56:25.000Z,99392.55
2018-11-02T18:58:53.550Z,99393.69
2018-11-02T19:01:22.620Z,99391.98
2018-11-02T19:03:51.538Z,99395.98
2018-11-02T19:06:20.249Z,99413.13
2018-11-02T19:08:48.928Z,99410.09
2018-11-02T19:11:17.996Z,99412.37
2018-11-02T19:13:47.028Z,99407.43
2018-11-02T19:16:15.640Z,99412.28
2018-11-02T19:18:44.431Z,99411.80
2018-11-02T19:21:14.574Z,99408.36
2018-11-02T19:23:44.134Z,99417.91
2018-11-02T19:26:12.699Z,99409.73
2018-11-02T19:28:41.429Z,99415.63
2018-11-02T19:31:10.887Z,99416.02
2018-11-02T19:33:39.758Z,99420.79
2018-11-02T19:36:08.383Z,99420.97
2018-11-02T19:38:37.656Z,99428.84
2018-11-02T19:41:06.909Z,99415.82
2018-11-02T19:43:35.662Z,99422.07
2018-11-02T19:46:04.328Z,99423.13
2018-11-02T19:48:33.950Z,99422.26
2018-11-02T19:51:03.354Z,99424.13
2018-11-02T19:53:32.151Z,99421.41
2018-11-02T19:56:00.912Z,99428.92
2018-11-02T19:58:30.953Z,99429.37
2018-11-02T20:00:59.640Z,99428.48
2018-11-02T20:03:28.535Z,99427.97
2018-11-02T20:05:57.929Z,99429.08
2018-11-02T20:08:27.060Z,99427.30
2018-11-02T20:10:55.748Z,99431.02
2018-11-02T20:13:24.400Z,99434.59
2018-11-02T20:15:53.934Z,99435.19
2018-11-02T20:18:22.612Z,99449.27
2018-11-02T20:20:51.685Z,99455.80
2018-11-02T20:23:21.148Z,99452.47
2018-11-02T20:25:53.117Z,99458.50
2018-11-02T20:28:24.570Z,99461.26
2018-11-02T20:30:53.698Z,99468.23
2018-11-02T20:33:22.391Z,99464.34
2018-11-02T20:35:51.103Z,99464.58
2018-11-02T20:38:20.749Z,99462.94
2018-11-02T20:40:49.910Z,99468.89
2018-11-02T20:43:18.558Z,99463.48
2018-11-02T20:45:47.155Z,99473.20
2018-11-02T20:48:15.734Z,99468.42
2018-11-02T20:50:44.626Z,99469.44
2018-11-02T20:53:13.927Z,99471.16
2018-11-02T20:55:42.724Z,99473.72
2018-11-02T20:58:11.441Z,99473.81
2018-11-02T21:00:40.840Z,99478.18
2018-11-02T21:03:09.511Z,99482.31
2018-11-02T21:05:38.213Z,99488.65
2018-11-02T21:08:07.424Z,99492.00
2018-11-02T21:10:36.479Z,99488.47
2018-11-02T21:13:05.336Z,99482.84
2018-11-02T21:15:33.914Z,99484.79
2018-11-02T21:18:02.607Z,99485.44
2018-11-02T21:20:31.391Z,99483.87
2018-11-02T21:23:00.438Z,99483.25
2018-11-02T21:25:29.338Z,99487.61
2018-11-02T21:27:57.994Z,99485.73
2018-11-02T21:30:27.071Z,99491.27
2018-11-02T21:32:56.703Z,99490.95
2018-11-02T21:35:25.539Z,99493.44
2018-11-02T21:37:54.312Z,99493.97
2018-11-02T21:40:23.979Z,99499.32
2018-11-02T21:42:52.788Z,99492.97
2018-11-02T21:45:22.587Z,99489.28
2018-11-02T21:47:51.280Z,99482.17
2018-11-02T21:50:20.080Z,99484.84
2018-11-02T21:52:48.848Z,99487.50
2018-11-02T21:55:18.424Z,99487.88
2018-11-02T21:57:47.184Z,99496.72
2018-11-02T22:00:17.085Z,99498.52
2018-11-02T22:02:46.154Z,99499.30
2018-11-02T22:05:15.819Z,99494.95
2018-11-02T22:07:46.668Z,99494.95
2018-11-02T22:10:16.631Z,99486.59
2018-11-02T22:12:45.357Z,99482.20
2018-11-02T22:15:14.094Z,99476.67
2018-11-02T22:17:42.785Z,99475.05
2018-11-02T22:20:12.770Z,99467.91
2018-11-02T22:22:41.658Z,99468.77
2018-11-02T22:25:11.623Z,99479.34
2018-11-02T22:27:40.518Z,99478.08
2018-11-02T22:30:11.568Z,99486.55
2018-11-02T22:32:40.559Z,99479.96
2018-11-02T22:35:09.930Z,99481.22
2018-11-02T22:37:39.541Z,99482.55
2018-11-02T22:40:09.995Z,99478.56
2018-11-02T22:42:39.001Z,99484.48
2018-11-02T22:45:08.288Z,99488.48
2018-11-02T22:47:36.948Z,99482.67
2018-11-02T22:50:06.551Z,99483.45
2018-11-02T22:52:35.234Z,99476.25
2018-11-02T22:55:03.976Z,99476.14
2018-11-02T22:57:33.031Z,99475.89
2018-11-02T23:00:01.675Z,99473.75
2018-11-02T23:02:30.588Z,99471.28
2018-11-02T23:04:59.237Z,99462.37
2018-11-02T23:07:28.073Z,99468.55
2018-11-02T23:09:56.724Z,99474.73
2018-11-02T23:12:25.591Z,99479.09
2018-11-02T23:14:54.310Z,99478.16
2018-11-02T23:17:24.205Z,99482.53
2018-11-02T23:19:52.934Z,99483.80
2018-11-02T23:22:21.904Z,99487.23
2018-11-02T23:24:51.307Z,99483.91
2018-11-02T23:27:20.214Z,99477.73
2018-11-02T23:29:49.420Z,99485.06
2018-11-02T23:32:18.292Z,99483.39
2018-11-02T23:34:47.966Z,99484.73
2018-11-02T23:37:17.500Z,99480.73
2018-11-02T23:39:46.618Z,99487.20
2018-11-02T23:42:16.275Z,99475.22
2018-11-02T23:44:44.960Z,99480.14
2018-11-02T23:47:14.918Z,99478.81
2018-11-02T23:49:44.427Z,99482.25
2018-11-02T23:52:13.436Z,99477.63
2018-11-02T23:54:43.086Z,99484.95
2018-11-02T23:57:14.687Z,99485.55
2018-11-02T23:59:43.297Z,99485.92
